Terminal Aerodrome Forecast
Issued by NWS Cleveland, OH

Home | Current Version | Previous Version | Graphics & Text | Print | Product List | Glossary On
Versions: 1 2 3 4 5 6 7 8 9 10 11 12 13 14 15 16 17 18 19 20 21 22 23 24 25 26 27 28
000
FTUS41 KCLE 242335
TAFCLE
TAF
KCLE 242335Z 2500/2606 19010KT P6SM SCT040 OVC100
      TEMPO 2501/2504 3SM -TSRA OVC025CB
     FM250400 22006KT P6SM BKN035 BKN100
     FM251000 22006KT 5SM BR SCT020
     FM251400 22010KT P6SM BKN020
     FM251600 22010G20KT P6SM BKN040
     FM252000 22010G30KT 3SM TSRA OVC025CB
     FM252200 24008KT P6SM SCT025 BKN080=

USA.gov is the U.S. government's official web portal to all federal, state and local government web resources and services.